Sparta, NC

2:48 AM EDT on March 29, 2015 (GMT -0400)
stone ridge | | Change Station
CLOSE
Current Station
Personal Weather Station
Location: Sparta, NC
Elevation: 3009 ft
Nearby Weather Stations

Elev 3009 ft 36.50 °N, 81.14 °W | Updated 24 seconds ago

Clear
Clear
21.9 °F
Feels Like 8 °F
N
17.0
Wind Variable Wind from NW
Gusts 17.0 mph

Today
High -- | Low -- °F
--% Chance of Precip.
Yesterday
High -- | Low -- °F
Precip. -- in
7:15 AM 7:43 PM
Waxing Gibbous, 69% visible
Pressure 30.17 in
Visibility 10.0 miles
Clouds Clear
Windchill 8 °F
Dew Point 8 °F
Humidity 54%
Rainfall 0.00 in
Snow Depth Not available.
UV 0 out of 12
Pollen 7.00 out of 12
Air Quality Not available.
Flu Activity Not available.
METAR KGEV 290635Z AUTO 30012G21KT 10SM CLR M05/M16 A3017 RMK AO2 T10481159

More Conditions Fewer Conditions

Pressure 30.17 in
Visibility 10.0 miles
Clouds Clear
Windchill 8 °F
Dew Point 8 °F
Humidity 54%
Rainfall 0.00 in
Snow Depth Not available.
UV 0 out of 12
Pollen 7.00 out of 12
Air Quality Not available.
Flu Activity Not available.
METAR KGEV 290635Z AUTO 30012G21KT 10SM CLR M05/M16 A3017 RMK AO2 T10481159

More Conditions Fewer Conditions

10-Day Weather Forecast

Almanac

Astronomy

Mar. 29, 2015 Rise Set
Actual Time
Civil Twilight
Nautical Twilight
Astronomical Twilight
Moon
Length of Visible Light
Length of Day
Tomorrow will be .
, % of the Moon is Illuminated

Today's Extremes

State Highs State Lows

Community

WunderPhotos

Upload Photos

1,809,187 photos uploaded!

WunderBlogs® & News

Nearby

Air Quality

  Air Quality AQ Index Pollutant
Not available.

Snow Depth

Station Depth Elevation

Earthquake Activity

City Distance Mag. Time & Date
Minimum magnitude displayed is 2.5.

Coastal Water Temperatures

Place Temperature

Stations

Nearby Weather Stations

Station Location Temp. Windchill Dew Point Humidity Wind Precip. Elev Updated Type